createdAt,value
2023-04-23T00:03:49.072Z,13.88
2023-04-23T00:07:52.939Z,13.82
2023-04-23T00:11:59.256Z,13.76
2023-04-23T00:16:03.570Z,13.66
2023-04-23T00:20:08.116Z,13.58
2023-04-23T00:24:11.938Z,13.49
2023-04-23T00:28:16.631Z,13.41
2023-04-23T00:32:20.121Z,13.32
2023-04-23T00:36:23.699Z,13.25
2023-04-23T00:40:27.177Z,13.21
2023-04-23T00:44:31.898Z,13.18
2023-04-23T00:48:36.462Z,13.15
2023-04-23T00:52:40.811Z,13.15
2023-04-23T00:56:44.428Z,13.18
2023-04-23T01:00:51.768Z,13.25
2023-04-23T01:04:57.424Z,13.28
2023-04-23T01:09:02.854Z,13.32
2023-04-23T01:13:07.221Z,13.31
2023-04-23T01:17:12.404Z,13.29
2023-04-23T01:21:17.603Z,13.30
2023-04-23T01:25:23.073Z,13.30
2023-04-23T01:29:27.151Z,13.27
2023-04-23T01:33:31.225Z,13.26
2023-04-23T01:37:39.929Z,13.27
2023-04-23T01:41:45.422Z,13.27
2023-04-23T01:45:48.706Z,13.25
2023-04-23T01:49:51.994Z,13.24
2023-04-23T01:53:55.769Z,13.22
2023-04-23T01:58:00.308Z,13.20
2023-04-23T02:02:03.791Z,13.18
2023-04-23T02:06:08.820Z,13.21
2023-04-23T02:10:13.148Z,13.25
2023-04-23T02:14:18.070Z,13.28
2023-04-23T02:18:21.393Z,13.29
2023-04-23T02:22:26.724Z,13.26
2023-04-23T02:26:30.737Z,13.19
2023-04-23T02:30:35.496Z,13.09
2023-04-23T02:34:39.676Z,13.01
2023-04-23T02:38:45.282Z,12.93
2023-04-23T02:42:48.926Z,12.91
2023-04-23T02:46:54.213Z,12.90
2023-04-23T02:50:58.409Z,12.93
2023-04-23T02:55:03.970Z,12.98
2023-04-23T02:59:08.983Z,13.05
2023-04-23T03:03:15.515Z,13.16
2023-04-23T03:07:19.017Z,13.27
2023-04-23T03:11:22.746Z,13.38
2023-04-23T03:15:27.767Z,13.50
2023-04-23T03:19:32.711Z,13.61
2023-04-23T03:23:40.068Z,13.71
2023-04-23T03:27:45.071Z,13.80
2023-04-23T03:31:48.781Z,13.88
2023-04-23T03:35:53.515Z,13.96
2023-04-23T03:39:57.235Z,14.00
2023-04-23T03:44:00.369Z,14.03
2023-04-23T03:48:03.824Z,14.04
2023-04-23T03:52:08.231Z,14.02
2023-04-23T03:56:12.229Z,14.01
2023-04-23T04:00:15.793Z,14.00
2023-04-23T04:04:19.473Z,14.00
2023-04-23T04:08:24.695Z,13.99
2023-04-23T04:12:28.089Z,14.00
2023-04-23T04:16:31.587Z,14.01
2023-04-23T04:20:35.284Z,14.05
2023-04-23T04:24:42.247Z,14.10
2023-04-23T04:28:45.815Z,14.15
2023-04-23T04:32:51.105Z,14.19
2023-04-23T04:36:55.836Z,14.22
2023-04-23T04:41:02.349Z,14.26
2023-04-23T04:45:06.638Z,14.25
2023-04-23T04:49:12.894Z,14.26
2023-04-23T04:53:16.493Z,14.29
2023-04-23T04:57:23.091Z,14.35
2023-04-23T05:01:27.763Z,14.46
2023-04-23T05:05:32.122Z,14.61
2023-04-23T05:09:36.075Z,14.85
2023-04-23T05:13:40.760Z,15.09
2023-04-23T05:17:45.470Z,15.32
2023-04-23T05:21:48.740Z,15.55
2023-04-23T05:25:56.342Z,15.74
2023-04-23T05:30:02.235Z,15.94
2023-04-23T05:34:05.617Z,16.11
2023-04-23T05:38:08.984Z,16.30
2023-04-23T05:42:13.455Z,16.48
2023-04-23T05:46:18.542Z,16.67
2023-04-23T05:50:23.868Z,16.83
2023-04-23T05:54:26.817Z,16.94
2023-04-23T05:58:30.335Z,17.04
2023-04-23T06:02:35.039Z,17.15
2023-04-23T06:06:38.624Z,17.25
2023-04-23T06:10:42.077Z,17.39
2023-04-23T06:14:45.892Z,17.55
2023-04-23T06:18:51.002Z,17.77
2023-04-23T06:22:54.849Z,17.97
2023-04-23T06:26:59.189Z,18.25
2023-04-23T06:31:04.655Z,18.55
2023-04-23T06:35:12.243Z,18.87
2023-04-23T06:39:16.213Z,19.13
2023-04-23T06:43:19.628Z,19.37
2023-04-23T06:47:23.788Z,19.56
2023-04-23T06:51:28.466Z,19.71
2023-04-23T06:55:34.555Z,19.81
2023-04-23T06:59:37.515Z,19.92
2023-04-23T07:03:45.234Z,20.04
2023-04-23T07:07:49.861Z,20.21
2023-04-23T07:11:53.519Z,20.38
2023-04-23T07:15:56.684Z,20.55
2023-04-23T07:20:00.221Z,20.70
2023-04-23T07:24:07.525Z,20.96
2023-04-23T07:28:10.892Z,21.39
2023-04-23T07:32:14.156Z,22.01
2023-04-23T07:36:18.218Z,22.74
2023-04-23T07:40:24.516Z,23.52
2023-04-23T07:44:28.067Z,24.16
2023-04-23T07:48:31.498Z,24.62
2023-04-23T07:52:35.010Z,24.89
2023-04-23T07:56:40.519Z,25.11
2023-04-23T08:00:45.417Z,25.45
2023-04-23T08:04:48.579Z,25.87
2023-04-23T08:08:52.846Z,26.31
2023-04-23T08:12:57.717Z,26.74
2023-04-23T08:17:01.979Z,27.10
2023-04-23T08:21:06.013Z,27.43
2023-04-23T08:25:11.467Z,27.67
2023-04-23T08:29:16.204Z,27.82
2023-04-23T08:33:19.519Z,27.94
2023-04-23T08:37:30.334Z,28.04
2023-04-23T08:41:40.468Z,28.20
2023-04-23T08:45:47.964Z,28.31
2023-04-23T08:49:57.008Z,28.36
2023-04-23T08:54:04.976Z,28.35
2023-04-23T08:58:08.241Z,28.45
2023-04-23T09:02:13.324Z,28.63
2023-04-23T09:06:16.783Z,28.81
2023-04-23T09:10:20.001Z,29.05
2023-04-23T09:14:25.282Z,29.27
2023-04-23T09:18:31.162Z,29.46
2023-04-23T09:22:43.188Z,29.62
2023-04-23T09:26:49.811Z,29.74
2023-04-23T09:30:54.782Z,29.83
2023-04-23T09:34:59.503Z,29.84
2023-04-23T09:39:02.492Z,29.86
2023-04-23T09:43:10.989Z,29.93
2023-04-23T09:47:16.322Z,30.05
2023-04-23T09:51:21.406Z,30.25
2023-04-23T09:55:31.040Z,30.48
2023-04-23T09:59:46.742Z,30.66
2023-04-23T10:03:55.174Z,30.89
2023-04-23T10:08:04.114Z,31.11
2023-04-23T10:12:20.712Z,31.37
2023-04-23T10:16:42.016Z,31.65
2023-04-23T10:20:53.325Z,31.86
2023-04-23T10:24:59.416Z,31.97
2023-04-23T10:29:08.044Z,31.94
2023-04-23T10:33:26.544Z,31.89
2023-04-23T10:37:33.105Z,31.83
2023-04-23T10:41:40.010Z,31.76
2023-04-23T10:45:45.672Z,31.62
2023-04-23T10:49:50.774Z,31.50
2023-04-23T10:53:54.424Z,31.40
2023-04-23T10:58:04.438Z,31.45
2023-04-23T11:02:10.006Z,31.56
2023-04-23T11:06:19.276Z,31.68
2023-04-23T11:10:22.406Z,31.77
2023-04-23T11:14:48.395Z,31.95
2023-04-23T11:19:03.747Z,32.13
2023-04-23T11:23:10.572Z,32.13
2023-04-23T11:27:15.434Z,32.01
2023-04-23T11:31:20.455Z,31.84
2023-04-23T11:35:28.472Z,31.66
2023-04-23T11:39:31.790Z,31.42
2023-04-23T11:43:35.705Z,31.14
2023-04-23T11:47:41.481Z,30.94
2023-04-23T11:51:45.751Z,30.79
2023-04-23T11:55:51.175Z,30.71
2023-04-23T11:59:55.976Z,30.63
2023-04-23T12:04:01.554Z,30.53
2023-04-23T12:08:09.080Z,30.43
2023-04-23T12:12:12.270Z,30.27
2023-04-23T12:16:15.800Z,30.05
2023-04-23T12:20:23.017Z,29.76
2023-04-23T12:24:27.403Z,29.48
2023-04-23T12:28:31.178Z,29.28
2023-04-23T12:32:35.022Z,29.06
2023-04-23T12:36:41.264Z,28.89
2023-04-23T12:40:44.264Z,28.67
2023-04-23T12:44:47.901Z,28.48
2023-04-23T12:48:51.253Z,28.28
2023-04-23T12:52:56.481Z,28.15
2023-04-23T12:57:03.103Z,28.09
2023-04-23T13:01:06.617Z,28.06
2023-04-23T13:05:10.738Z,28.01
2023-04-23T13:09:15.628Z,28.01
2023-04-23T13:13:18.853Z,28.02
2023-04-23T13:17:23.593Z,28.08
2023-04-23T13:21:26.874Z,28.20
2023-04-23T13:25:32.822Z,28.43
2023-04-23T13:29:35.742Z,28.70
2023-04-23T13:33:39.485Z,28.95
2023-04-23T13:37:42.877Z,29.22
2023-04-23T13:41:59.142Z,29.51
2023-04-23T13:46:09.911Z,29.83
2023-04-23T13:50:13.815Z,30.08
2023-04-23T13:54:17.092Z,30.29
2023-04-23T13:58:22.308Z,30.41
2023-04-23T14:02:27.999Z,30.47
2023-04-23T14:06:32.072Z,30.42
2023-04-23T14:10:37.146Z,30.32
2023-04-23T14:14:42.000Z,30.17
2023-04-23T14:18:45.798Z,29.95
2023-04-23T14:22:51.311Z,29.67
2023-04-23T14:26:54.142Z,29.41
2023-04-23T14:30:59.586Z,29.09
2023-04-23T14:35:03.777Z,28.70
2023-04-23T14:39:07.506Z,28.47
2023-04-23T14:43:15.588Z,28.33
2023-04-23T14:47:21.802Z,28.30
2023-04-23T14:51:24.933Z,28.38
2023-04-23T14:55:28.546Z,28.57
2023-04-23T14:59:31.560Z,28.82
2023-04-23T15:03:37.315Z,29.06
2023-04-23T15:07:42.133Z,29.26
2023-04-23T15:11:45.669Z,29.41
2023-04-23T15:16:00.202Z,29.54
2023-04-23T15:20:05.221Z,29.67
2023-04-23T15:24:10.071Z,29.77
2023-04-23T15:28:13.443Z,29.88
2023-04-23T15:32:16.575Z,29.99
2023-04-23T15:36:21.259Z,30.06
2023-04-23T15:40:26.842Z,30.07
2023-04-23T15:44:35.241Z,29.88
2023-04-23T15:48:38.355Z,29.76
2023-04-23T15:52:43.862Z,29.57
2023-04-23T15:56:46.875Z,29.28
2023-04-23T16:00:50.467Z,29.02
2023-04-23T16:04:55.021Z,28.70
2023-04-23T16:08:59.648Z,28.27
2023-04-23T16:13:03.601Z,27.86
2023-04-23T16:17:07.321Z,27.36
2023-04-23T16:21:12.526Z,26.85
2023-04-23T16:25:18.128Z,26.46
2023-04-23T16:29:23.083Z,26.22
2023-04-23T16:33:27.734Z,25.97
2023-04-23T16:37:30.887Z,25.82
2023-04-23T16:41:35.765Z,25.66
2023-04-23T16:45:41.362Z,25.49
2023-04-23T16:49:48.088Z,25.35
2023-04-23T16:53:51.201Z,25.10
2023-04-23T16:57:56.834Z,24.87
2023-04-23T17:01:59.977Z,24.54
2023-04-23T17:06:11.895Z,24.25
2023-04-23T17:10:15.517Z,23.84
2023-04-23T17:14:20.401Z,23.57
2023-04-23T17:18:23.416Z,23.30
2023-04-23T17:22:27.158Z,23.08
2023-04-23T17:26:30.317Z,22.89
2023-04-23T17:30:35.198Z,22.70
2023-04-23T17:34:38.181Z,22.46
2023-04-23T17:38:43.336Z,22.20
2023-04-23T17:42:46.246Z,21.89
2023-04-23T17:46:52.715Z,21.50
2023-04-23T17:50:55.712Z,21.11
2023-04-23T17:55:00.354Z,20.73
2023-04-23T17:59:03.981Z,20.36
2023-04-23T18:03:09.213Z,20.02
2023-04-23T18:07:12.469Z,19.68
2023-04-23T18:11:17.576Z,19.37
2023-04-23T18:15:21.233Z,19.07
2023-04-23T18:19:27.212Z,18.84
2023-04-23T18:23:31.586Z,18.60
2023-04-23T18:27:36.862Z,18.43
2023-04-23T18:31:40.020Z,18.26
2023-04-23T18:35:45.011Z,18.11
2023-04-23T18:39:48.172Z,17.95
2023-04-23T18:43:54.065Z,17.56
2023-04-23T18:48:50.131Z,17.63
2023-04-23T18:53:15.763Z,17.42
2023-04-23T18:57:20.393Z,17.44
2023-04-23T19:01:24.707Z,17.32
2023-04-23T19:05:28.225Z,17.21
2023-04-23T19:09:33.737Z,17.08
2023-04-23T19:13:37.296Z,16.97
2023-04-23T19:17:41.581Z,16.84
2023-04-23T19:21:44.550Z,16.75
2023-04-23T19:25:49.478Z,16.69
2023-04-23T19:29:54.522Z,16.61
2023-04-23T19:33:58.597Z,16.53
2023-04-23T19:38:01.807Z,16.45
2023-04-23T19:42:07.999Z,16.35
2023-04-23T19:46:10.985Z,16.14
2023-04-23T19:50:16.103Z,16.07
2023-04-23T19:54:19.420Z,15.95
2023-04-23T19:58:25.162Z,15.83
2023-04-23T20:02:28.427Z,15.68
2023-04-23T20:06:34.252Z,15.58
2023-04-23T20:10:37.630Z,15.47
2023-04-23T20:14:42.924Z,15.37
2023-04-23T20:18:47.326Z,15.29
2023-04-23T20:22:50.905Z,15.20
2023-04-23T20:26:54.236Z,15.10
2023-04-23T20:30:59.350Z,15.05
2023-04-23T20:35:02.434Z,14.99
2023-04-23T20:39:06.135Z,14.90
2023-04-23T20:43:10.012Z,14.80
2023-04-23T20:47:17.319Z,14.73
2023-04-23T20:51:21.022Z,14.64
2023-04-23T20:55:26.565Z,14.57
2023-04-23T20:59:29.792Z,14.49
2023-04-23T21:03:37.535Z,14.40
2023-04-23T21:07:44.562Z,14.38
2023-04-23T21:11:48.283Z,14.33
2023-04-23T21:15:52.033Z,14.30
2023-04-23T21:19:58.696Z,14.28
2023-04-23T21:24:02.415Z,14.26
2023-04-23T21:28:06.130Z,14.24
2023-04-23T21:32:09.828Z,14.24
2023-04-23T21:36:17.066Z,14.24
2023-04-23T21:40:20.342Z,14.22
2023-04-23T21:44:23.871Z,14.22
2023-04-23T21:48:27.454Z,14.22
2023-04-23T21:52:33.157Z,14.20
2023-04-23T21:56:36.931Z,14.18
2023-04-23T22:04:51.156Z,14.16
2023-04-23T22:08:56.257Z,14.17
2023-04-23T22:13:00.863Z,14.17
2023-04-23T22:17:04.020Z,14.19
2023-04-23T22:21:10.520Z,14.18
2023-04-23T22:25:17.351Z,14.22
2023-04-23T22:29:20.456Z,14.23
2023-04-23T22:33:26.517Z,14.25
2023-04-23T22:37:30.088Z,14.27
2023-04-23T22:41:36.734Z,14.26
2023-04-23T22:45:40.496Z,14.19
2023-04-23T22:49:44.623Z,14.12
2023-04-23T22:53:50.944Z,14.09
2023-04-23T22:57:57.151Z,14.06
2023-04-23T23:02:00.640Z,14.01
2023-04-23T23:06:04.440Z,13.97
2023-04-23T23:10:10.110Z,13.91
2023-04-23T23:14:15.112Z,13.89
2023-04-23T23:18:19.064Z,13.90
2023-04-23T23:22:22.290Z,13.97
2023-04-23T23:26:26.490Z,14.07
2023-04-23T23:30:31.558Z,14.18
2023-04-23T23:34:35.048Z,14.28
2023-04-23T23:38:38.005Z,14.37
2023-04-23T23:42:41.811Z,14.48
2023-04-23T23:46:46.507Z,14.62
2023-04-23T23:50:50.041Z,14.78
2023-04-23T23:54:53.311Z,14.94
2023-04-23T23:58:56.893Z,15.07
